Terminal Aerodrome Forecast
Issued by NWS

Home | Current Version | Previous Version | Text Only | Print | Product List | Glossary On
Versions: 1 2 3 4 5 6 7 8 9 10 11 12 13 14
000
FTUS42 KTBW 261100
TAFLAL
TAF
KLAL 261126Z 2612/2712 VRB03KT P6SM SCT250
     FM261400 25005KT P6SM SCT030 SCT250
     FM261600 27008KT P6SM VCTS SCT035CB BKN250=

USA.gov is the U.S. government's official web portal to all federal, state and local government web resources and services.